Terminal Aerodrome Forecast
Issued by NWS

Home | Current Version | Previous Version | Text Only | Print | Product List | Glossary On
Versions: 1 2 3 4 5 6 7 8 9 10 11 12 13 14 15 16 17 18 19 20 21 22 23 24 25 26 27 28 29 30 31 32 33 34 35 36 37 38 39 40 41 42 43 44 45 46 47 48 49 50
000
FTUS44 KHGX 230705 AAB
TAFIAH
TAF AMD
KIAH 230705Z 2307/2412 33020G30KT 4SM SHRA BR BKN012 OVC025
     FM231000 33014G27KT 6SM -RA BR OVC025
     FM231200 34016G26KT P6SM -RA OVC040
     FM231500 33016G25KT P6SM BKN090
     FM231800 34012G20KT P6SM SKC
     FM232300 36007KT P6SM SKC=

USA.gov is the U.S. government's official web portal to all federal, state and local government web resources and services.